Time;durP1;ratioP1;P1;durP2;ratioP2;P2;SDS_P1;SDS_P2;PMS_P1;PMS_P2;Temp;Humidity;BMP_temperature;BMP_pressure;BME280_temperature;BME280_humidity;BME280_pressure;Samples;Min_cycle;Max_cycle;Signal;HPM_P1;HPM_P2
2023/05/01 00:01:10;;;;;;;9.10;4.85;;;;;;;7.75;100.00;101980.72;4986716;28;20056;-78
2023/05/01 00:03:38;;;;;;;10.77;5.47;;;;;;;7.74;100.00;101989.41;5016854;28;20045;-77
2023/05/01 00:06:06;;;;;;;9.18;5.15;;;;;;;7.71;100.00;101988.41;5026430;28;20048;-78
2023/05/01 00:08:34;;;;;;;7.65;4.70;;;;;;;7.68;100.00;101981.34;5028382;28;20441;-77
2023/05/01 00:11:02;;;;;;;13.68;5.68;;;;;;;7.69;100.00;101974.34;4997788;28;20609;-77
2023/05/01 00:13:30;;;;;;;8.32;5.85;;;;;;;7.68;100.00;101980.47;4985181;28;20044;-77
2023/05/01 00:15:58;;;;;;;8.18;4.47;;;;;;;7.68;100.00;101977.84;5015766;28;20045;-77
2023/05/01 00:18:25;;;;;;;8.93;5.07;;;;;;;7.66;100.00;101975.16;4995845;28;20533;-77
2023/05/01 00:20:53;;;;;;;9.48;5.05;;;;;;;7.66;100.00;101975.16;4995425;28;20048;-77
2023/05/01 00:23:20;;;;;;;7.32;5.10;;;;;;;7.64;100.00;101970.69;5010758;28;20414;-79
2023/05/01 00:25:48;;;;;;;10.43;4.50;;;;;;;7.63;100.00;101963.66;5009465;28;20053;-77
2023/05/01 00:28:17;;;;;;;5.38;4.75;;;;;;;7.61;100.00;101963.59;4958544;28;20041;-79
2023/05/01 00:30:45;;;;;;;9.52;4.57;;;;;;;7.59;100.00;101962.66;5007388;28;20058;-79
2023/05/01 00:33:13;;;;;;;8.73;5.10;;;;;;;7.57;100.00;101964.34;5013219;28;20090;-79
2023/05/01 00:35:43;;;;;;;10.85;4.90;;;;;;;7.56;100.00;101954.69;5000402;28;20486;-79
2023/05/01 00:38:11;;;;;;;5.70;4.63;;;;;;;7.55;100.00;101958.16;5027846;28;20048;-79
2023/05/01 00:40:45;;;;;;;7.10;4.35;;;;;;;7.54;100.00;101953.75;5029904;28;20053;-79
2023/05/01 00:43:12;;;;;;;8.65;4.75;;;;;;;7.53;100.00;101944.13;4996139;28;20047;-79
2023/05/01 00:45:44;;;;;;;7.70;4.32;;;;;;;7.52;100.00;101944.94;5049800;28;20060;-77
2023/05/01 00:48:13;;;;;;;4.95;4.43;;;;;;;7.51;100.00;101935.31;5016467;28;20393;-79
2023/05/01 00:50:44;;;;;;;8.95;4.43;;;;;;;7.53;100.00;101931.00;4988491;28;20080;-77
2023/05/01 00:53:11;;;;;;;8.27;4.50;;;;;;;7.53;100.00;101928.38;5005886;28;20057;-77
2023/05/01 00:55:41;;;;;;;4.85;3.90;;;;;;;7.53;100.00;101936.25;5009662;28;20049;-78
2023/05/01 00:58:10;;;;;;;7.22;4.32;;;;;;;7.52;100.00;101929.19;4984957;28;20061;-78
2023/05/01 01:00:38;;;;;;;7.13;4.40;;;;;;;7.48;100.00;101932.56;4969832;28;20053;-78
2023/05/01 01:03:05;;;;;;;8.43;4.75;;;;;;;7.48;100.00;101924.69;4994265;28;20042;-78
2023/05/01 01:05:40;;;;;;;11.57;4.40;;;;;;;7.46;100.00;101924.66;5011890;28;20050;-78
2023/05/01 01:08:17;;;;;;;5.78;4.15;;;;;;;7.46;100.00;101923.75;5021884;28;20054;-79
2023/05/01 01:10:57;;;;;;;6.85;4.25;;;;;;;7.43;100.00;101924.56;5028431;28;20072;-78
2023/05/01 01:13:51;;;;;;;8.18;4.10;;;;;;;7.41;100.00;101910.50;5003109;28;20422;-78
2023/05/01 01:16:37;;;;;;;8.55;4.63;;;;;;;7.37;100.00;101912.13;4975496;28;20041;-79
2023/05/01 01:19:48;;;;;;;6.00;4.00;;;;;;;7.37;100.00;101908.59;4998141;28;20045;-78
2023/05/01 01:22:21;;;;;;;6.07;4.00;;;;;;;7.33;100.00;101912.84;4982463;28;20056;-78
2023/05/01 01:25:16;;;;;;;6.28;4.50;;;;;;;7.31;100.00;101903.16;5002005;28;20056;-78
2023/05/01 01:28:20;;;;;;;9.05;4.80;;;;;;;7.29;100.00;101895.25;5019556;28;20418;-78
2023/05/01 01:31:04;;;;;;;7.15;4.88;;;;;;;7.28;100.00;101903.03;4978749;28;20052;-78
2023/05/01 01:33:43;;;;;;;6.93;4.55;;;;;;;7.28;100.00;101892.56;4996717;28;20518;-78
2023/05/01 01:36:19;;;;;;;11.80;5.15;;;;;;;7.26;100.00;101889.00;5032088;28;20048;-78
2023/05/01 01:39:12;;;;;;;7.93;4.63;;;;;;;7.23;100.00;101892.41;4998260;28;20076;-78
2023/05/01 01:41:41;;;;;;;12.23;5.18;;;;;;;7.18;100.00;101887.03;5013184;28;20057;-78
2023/05/01 01:44:20;;;;;;;8.30;4.87;;;;;;;7.15;100.00;101886.03;4998257;28;20049;-78
2023/05/01 01:46:51;;;;;;;8.93;5.13;;;;;;;7.14;100.00;101884.25;4997023;28;20045;-78
2023/05/01 01:49:23;;;;;;;10.57;4.97;;;;;;;7.11;100.00;101879.78;5019712;28;20045;-78
2023/05/01 01:51:54;;;;;;;6.93;5.03;;;;;;;7.12;100.00;101881.56;5002159;28;20787;-78
2023/05/01 01:54:30;;;;;;;6.63;4.45;;;;;;;7.10;100.00;101864.91;5031650;28;20049;-78
2023/05/01 01:57:01;;;;;;;7.80;4.72;;;;;;;7.09;100.00;101863.13;5008837;28;20399;-78
2023/05/01 01:59:33;;;;;;;7.10;4.72;;;;;;;7.05;100.00;101861.25;5028599;28;20046;-78
2023/05/01 02:02:04;;;;;;;9.63;4.97;;;;;;;7.05;100.00;101868.19;4990296;28;20052;-78
2023/05/01 02:04:33;;;;;;;11.07;5.50;;;;;;;7.02;100.00;101853.28;4997106;28;20057;-78
2023/05/01 02:07:00;;;;;;;7.90;4.78;;;;;;;7.00;100.00;101858.47;5008147;28;20042;-78
2023/05/01 02:09:29;;;;;;;7.68;4.53;;;;;;;6.98;100.00;101854.91;5002532;28;20046;-78
2023/05/01 02:11:59;;;;;;;8.88;5.03;;;;;;;6.95;100.00;101849.53;5012817;28;20057;-78
2023/05/01 02:14:27;;;;;;;9.68;4.47;;;;;;;6.94;100.00;101844.28;4998617;28;20050;-78
2023/05/01 02:16:57;;;;;;;7.20;4.95;;;;;;;6.92;100.00;101843.28;5032583;28;20042;-78
2023/05/01 02:19:25;;;;;;;8.43;5.37;;;;;;;6.91;100.00;101842.41;4973160;28;20049;-78
2023/05/01 02:21:57;;;;;;;6.07;5.03;;;;;;;6.89;100.00;101832.72;5012321;28;20057;-78
2023/05/01 02:24:27;;;;;;;8.05;5.90;;;;;;;6.87;100.00;101827.44;5000707;28;20537;-78
2023/05/01 02:27:08;;;;;;;6.63;5.00;;;;;;;6.85;100.00;101823.88;4998990;28;20509;-78
2023/05/01 02:29:36;;;;;;;7.07;5.72;;;;;;;6.83;100.00;101817.69;5003669;28;20056;-78
2023/05/01 02:32:04;;;;;;;8.38;5.05;;;;;;;6.82;100.00;101821.13;4997958;28;20049;-78
2023/05/01 02:34:34;;;;;;;6.93;5.10;;;;;;;6.80;100.00;101817.56;4967621;28;20774;-79
2023/05/01 02:37:05;;;;;;;8.95;4.90;;;;;;;6.78;100.00;101814.03;4999632;28;20054;-79
2023/05/01 02:39:34;;;;;;;8.05;6.03;;;;;;;6.76;100.00;101807.84;4990055;28;20056;-79
2023/05/01 02:42:03;;;;;;;6.68;5.68;;;;;;;6.73;100.00;101802.47;4991562;28;20495;-78
2023/05/01 02:44:38;;;;;;;11.27;5.55;;;;;;;6.71;100.00;101796.31;4985795;28;20053;-79
2023/05/01 02:47:09;;;;;;;11.85;5.55;;;;;;;6.69;100.00;101797.97;5043067;28;20415;-79
2023/05/01 02:49:39;;;;;;;10.05;5.68;;;;;;;6.68;100.00;101798.84;5023412;28;20060;-79
2023/05/01 02:52:07;;;;;;;9.18;5.68;;;;;;;6.66;100.00;101787.41;4980403;28;20045;-79
2023/05/01 02:54:35;;;;;;;10.60;5.60;;;;;;;6.62;100.00;101779.44;4996404;28;20058;-79
2023/05/01 02:57:04;;;;;;;13.35;5.47;;;;;;;6.58;100.00;101774.94;4995309;28;20050;-78
2023/05/01 02:59:32;;;;;;;12.10;5.55;;;;;;;6.55;100.00;101780.06;4979129;28;20053;-78
2023/05/01 03:01:59;;;;;;;7.97;5.75;;;;;;;6.54;100.00;101770.44;5021637;28;20033;-79
2023/05/01 03:04:27;;;;;;;9.93;5.95;;;;;;;6.50;100.00;101763.28;5010059;28;20958;-78
2023/05/01 03:06:55;;;;;;;10.50;5.95;;;;;;;6.46;100.00;101765.78;4971699;28;20042;-78
2023/05/01 03:09:22;;;;;;;9.43;5.57;;;;;;;6.43;100.00;101764.84;4982103;28;20049;-79
2023/05/01 03:11:50;;;;;;;6.88;5.60;;;;;;;6.40;100.00;101761.22;4994453;28;20053;-79
2023/05/01 03:14:17;;;;;;;8.30;5.65;;;;;;;6.37;100.00;101761.09;5009061;28;20135;-78
2023/05/01 03:16:44;;;;;;;6.75;5.13;;;;;;;6.33;100.00;101760.13;4984890;28;20609;-79
2023/05/01 03:19:12;;;;;;;9.15;6.20;;;;;;;6.31;100.00;101753.03;4992766;28;20049;-77
2023/05/01 03:21:39;;;;;;;11.07;6.38;;;;;;;6.27;100.00;101748.53;4953302;28;20072;-77
2023/05/01 03:24:07;;;;;;;8.68;5.63;;;;;;;6.23;100.00;101737.94;5029748;28;20045;-77
2023/05/01 03:26:34;;;;;;;11.73;8.45;;;;;;;6.21;100.00;101739.63;5014876;28;20116;-78
2023/05/01 03:29:02;;;;;;;10.73;6.45;;;;;;;6.18;100.00;101731.69;5014160;28;20053;-78
2023/05/01 03:31:30;;;;;;;15.73;7.18;;;;;;;6.16;100.00;101730.75;5010558;28;20045;-78
2023/05/01 03:33:58;;;;;;;11.80;6.13;;;;;;;6.15;100.00;101731.56;5003707;28;20050;-77
2023/05/01 03:36:27;;;;;;;8.95;5.50;;;;;;;6.14;100.00;101727.16;5023493;28;20054;-77
2023/05/01 03:38:55;;;;;;;9.07;6.22;;;;;;;6.12;100.00;101722.72;4979525;28;20045;-78
2023/05/01 03:41:41;;;;;;;21.15;6.55;;;;;;;6.11;100.00;101727.06;5007721;28;20060;-78
2023/05/01 03:44:19;;;;;;;11.45;6.35;;;;;;;6.09;100.00;101723.50;5011277;28;20053;-77
2023/05/01 03:46:47;;;;;;;10.75;7.38;;;;;;;6.10;100.00;101724.38;4980775;28;20499;-78
2023/05/01 03:49:22;;;;;;;12.52;6.82;;;;;;;6.09;100.00;101720.88;5002542;28;20059;-77
2023/05/01 03:51:50;;;;;;;12.90;6.93;;;;;;;6.10;100.00;101716.53;5026068;28;20049;-78
2023/05/01 03:54:18;;;;;;;12.82;7.03;;;;;;;6.09;100.00;101715.66;4979586;28;20050;-77
2023/05/01 03:56:58;;;;;;;15.73;7.15;;;;;;;6.12;100.00;101717.47;5012636;28;20053;-77
2023/05/01 03:59:25;;;;;;;10.10;6.57;;;;;;;6.13;100.00;101706.19;4995378;28;20057;-77
2023/05/01 04:01:53;;;;;;;10.57;6.75;;;;;;;6.14;100.00;101710.56;5003501;28;20041;-78
2023/05/01 04:04:20;;;;;;;8.52;6.60;;;;;;;6.12;100.00;101707.88;4979822;28;20057;-78
2023/05/01 04:06:55;;;;;;;15.88;8.43;;;;;;;6.13;100.00;101704.44;4995870;28;20379;-79
2023/05/01 04:09:22;;;;;;;12.75;7.50;;;;;;;6.13;100.00;101707.06;4973234;28;20056;-77
2023/05/01 04:11:49;;;;;;;12.52;7.38;;;;;;;6.14;100.00;101703.59;5020411;28;20060;-78
2023/05/01 04:14:17;;;;;;;12.45;6.80;;;;;;;6.14;100.00;101707.94;4963206;28;20503;-78
2023/05/01 04:16:44;;;;;;;14.48;7.80;;;;;;;6.15;100.00;101704.50;5012225;28;20053;-78
2023/05/01 04:19:12;;;;;;;10.45;7.50;;;;;;;6.15;100.00;101710.63;5000576;28;20065;-78
2023/05/01 04:21:43;;;;;;;16.42;11.02;;;;;;;6.18;100.00;101702.88;5045753;28;20048;-78
2023/05/01 04:24:10;;;;;;;16.27;9.02;;;;;;;6.21;100.00;101710.81;4987791;28;20049;-78
2023/05/01 04:26:41;;;;;;;14.93;7.53;;;;;;;6.20;100.00;101700.31;4953740;28;20054;-78
2023/05/01 04:29:09;;;;;;;13.93;7.93;;;;;;;6.21;100.00;101702.97;5000843;28;20060;-78
2023/05/01 04:31:36;;;;;;;15.02;8.15;;;;;;;6.24;100.00;101695.25;5006457;28;20054;-78
2023/05/01 04:34:04;;;;;;;9.80;7.75;;;;;;;6.29;100.00;101691.88;4991532;28;20058;-78
2023/05/01 04:36:31;;;;;;;8.80;6.60;;;;;;;6.31;100.00;101687.59;4977915;28;20064;-78
2023/05/01 04:38:59;;;;;;;18.13;7.70;;;;;;;6.36;100.00;101686.03;5001986;28;20053;-78
2023/05/01 04:41:28;;;;;;;10.63;7.22;;;;;;;6.41;100.00;101687.09;4941686;28;20058;-78
2023/05/01 04:43:55;;;;;;;10.60;7.35;;;;;;;6.48;100.00;101682.91;5007043;28;20057;-78
2023/05/01 04:46:22;;;;;;;13.07;7.97;;;;;;;6.60;100.00;101685.97;4993105;28;20065;-78
2023/05/01 04:48:50;;;;;;;8.88;7.45;;;;;;;6.97;100.00;101681.88;5020821;28;20499;-78
2023/05/01 04:51:18;;;;;;;16.38;8.85;;;;;;;7.40;100.00;101670.97;4992452;28;20049;-78
2023/05/01 04:53:46;;;;;;;12.93;8.40;;;;;;;7.71;100.00;101669.25;4997783;28;20053;-78
2023/05/01 04:56:24;;;;;;;13.60;8.80;;;;;;;7.86;100.00;101675.75;4948557;28;20057;-78
2023/05/01 04:58:55;;;;;;;16.05;9.52;;;;;;;7.96;100.00;101665.53;4991956;28;20867;-78
2023/05/01 05:01:25;;;;;;;15.45;8.25;;;;;;;7.98;100.00;101676.97;4992553;28;20582;-78
2023/05/01 05:03:53;;;;;;;13.95;8.50;;;;;;;7.94;100.00;101672.50;5005617;28;20061;-79
2023/05/01 05:06:21;;;;;;;14.25;8.40;;;;;;;8.03;100.00;101671.84;4950348;28;20049;-79
2023/05/01 05:08:52;;;;;;;16.27;8.05;;;;;;;8.42;100.00;101676.38;4997766;28;20050;-80
2023/05/01 05:11:22;;;;;;;15.10;7.25;;;;;;;9.16;100.00;101672.88;4957760;28;20054;-79
2023/05/01 05:13:59;;;;;;;9.23;6.47;;;;;;;10.00;100.00;101665.81;4960430;28;20399;-76
2023/05/01 05:16:26;;;;;;;12.13;6.97;;;;;;;10.53;100.00;101673.81;4986701;28;20068;-76
2023/05/01 05:18:55;;;;;;;12.13;7.15;;;;;;;10.78;100.00;101662.78;4984724;28;20077;-76
2023/05/01 05:21:24;;;;;;;;;;;;;;;10.86;100.00;101667.28;4988374;28;20072;-76
2023/05/01 05:23:54;;;;;;;9.85;6.80;;;;;;;10.85;100.00;101665.53;4991828;28;20287;-76
2023/05/01 05:26:25;;;;;;;10.07;6.10;;;;;;;10.79;100.00;101668.06;4982857;28;20116;-76
2023/05/01 05:28:55;;;;;;;8.63;5.00;;;;;;;10.70;100.00;101660.91;4952297;28;20304;-76
2023/05/01 05:31:23;;;;;;;10.43;5.20;;;;;;;10.73;100.00;101671.47;4996997;28;20065;-76
2023/05/01 05:33:51;;;;;;;7.40;5.97;;;;;;;10.76;100.00;101657.47;4984747;28;20408;-76
2023/05/01 05:36:18;;;;;;;11.15;5.55;;;;;;;10.80;100.00;101661.94;4992360;28;20049;-76
2023/05/01 05:38:46;;;;;;;10.98;5.72;;;;;;;10.80;100.00;101659.28;4987705;28;20053;-76
2023/05/01 05:41:17;;;;;;;12.50;5.60;;;;;;;10.80;100.00;101656.66;5005962;28;20046;-76
2023/05/01 05:43:45;;;;;;;11.57;5.72;;;;;;;10.79;100.00;101657.50;4937754;28;20053;-76
2023/05/01 05:46:13;;;;;;;9.45;5.50;;;;;;;10.78;100.00;101649.59;4978567;28;20089;-76
2023/05/01 05:48:41;;;;;;;10.07;5.60;;;;;;;10.80;100.00;101651.38;4984333;28;20407;-76
2023/05/01 05:51:09;;;;;;;14.90;5.95;;;;;;;10.95;100.00;101650.72;4994617;28;20500;-76
2023/05/01 05:53:37;;;;;;;7.93;5.30;;;;;;;11.14;100.00;101638.69;4985553;28;20050;-76
2023/05/01 05:56:04;;;;;;;9.80;5.43;;;;;;;11.29;100.00;101638.00;4992327;28;20523;-76
2023/05/01 05:58:32;;;;;;;11.23;5.50;;;;;;;11.45;100.00;101631.16;4990163;28;20058;-77
2023/05/01 06:00:59;;;;;;;10.20;5.18;;;;;;;11.52;100.00;101633.88;4938834;28;20049;-77
2023/05/01 06:03:27;;;;;;;8.90;5.65;;;;;;;11.52;100.00;101630.34;4967240;28;20054;-76
2023/05/01 06:05:59;;;;;;;9.65;4.93;;;;;;;11.46;100.00;101628.53;4983010;28;20404;-80
2023/05/01 06:08:27;;;;;;;8.63;5.13;;;;;;;11.41;100.00;101631.97;4981344;28;20058;-76
2023/05/01 06:10:55;;;;;;;8.77;5.57;;;;;;;11.35;100.00;101630.16;4961924;28;20405;-78
2023/05/01 06:13:22;;;;;;;9.73;5.30;;;;;;;11.30;100.00;101632.75;4966364;28;20066;-78
2023/05/01 06:15:50;;;;;;;16.15;6.00;;;;;;;11.29;100.00;101628.31;4919766;28;20058;-78
2023/05/01 06:18:18;;;;;;;11.95;5.40;;;;;;;11.30;100.00;101624.84;4947099;28;20536;-78
2023/05/01 06:20:46;;;;;;;10.32;5.50;;;;;;;11.30;100.00;101623.94;4981079;28;20061;-76
2023/05/01 06:23:15;;;;;;;11.18;5.40;;;;;;;11.34;100.00;101620.44;4965539;28;20054;-78
2023/05/01 06:26:06;;;;;;;11.68;5.70;;;;;;;11.40;100.00;101622.28;4993329;28;20042;-78
2023/05/01 06:28:34;;;;;;;8.82;5.70;;;;;;;11.48;100.00;101620.63;4989137;28;20396;-78
2023/05/01 06:31:02;;;;;;;7.82;5.95;;;;;;;11.57;100.00;101615.47;4966598;28;20054;-79
2023/05/01 06:33:33;;;;;;;8.95;5.32;;;;;;;11.67;100.00;101624.38;4949263;28;20091;-77
2023/05/01 06:36:12;;;;;;;7.72;4.90;;;;;;;11.81;100.00;101624.50;4968556;28;20627;-77
2023/05/01 06:38:41;;;;;;;10.90;5.65;;;;;;;11.90;100.00;101622.88;4958589;28;20072;-77
2023/05/01 06:41:09;;;;;;;11.95;5.45;;;;;;;12.00;100.00;101615.06;4999700;28;20058;-77
2023/05/01 06:43:36;;;;;;;9.10;5.07;;;;;;;12.04;100.00;101611.56;4989592;28;20138;-77
2023/05/01 06:46:04;;;;;;;7.63;4.93;;;;;;;12.08;100.00;101622.19;4919883;28;20062;-77
2023/05/01 06:48:31;;;;;;;14.80;6.30;;;;;;;12.14;100.00;101620.50;4962659;28;20077;-77
2023/05/01 06:50:58;;;;;;;12.25;5.47;;;;;;;12.18;100.00;101609.06;4985261;28;20041;-77
2023/05/01 06:53:26;;;;;;;12.48;5.28;;;;;;;12.21;100.00;101609.97;4981400;28;20057;-77
2023/05/01 06:55:53;;;;;;;10.90;5.57;;;;;;;12.25;100.00;101605.63;4973992;28;20042;-77
2023/05/01 06:58:20;;;;;;;9.75;4.95;;;;;;;12.24;100.00;101610.00;4989747;28;20054;-77
2023/05/01 07:00:52;;;;;;;8.55;4.10;;;;;;;12.17;100.00;101607.28;4997231;28;20057;-77
2023/05/01 07:03:20;;;;;;;9.07;4.78;;;;;;;12.18;100.00;101609.94;4899265;28;20496;-76
2023/05/01 07:05:47;;;;;;;8.63;5.45;;;;;;;12.22;100.00;101610.84;4984922;28;20055;-76
2023/05/01 07:08:15;;;;;;;9.75;4.93;;;;;;;12.26;100.00;101610.00;4987934;28;20065;-79
2023/05/01 07:10:42;;;;;;;12.60;5.47;;;;;;;12.29;100.00;101607.41;5014447;28;20049;-78
2023/05/01 07:13:09;;;;;;;7.50;5.00;;;;;;;12.34;100.00;101610.06;4989258;28;20054;-76
2023/05/01 07:15:37;;;;;;;10.45;4.80;;;;;;;12.41;100.00;101602.19;5025885;28;20037;-77
2023/05/01 07:18:04;;;;;;;8.68;4.50;;;;;;;12.48;100.00;101598.72;4952908;28;20045;-76
2023/05/01 07:20:33;;;;;;;11.30;5.15;;;;;;;12.60;100.00;101600.56;4976350;28;20656;-77
2023/05/01 07:23:01;;;;;;;9.25;5.70;;;;;;;12.69;100.00;101599.75;5035454;28;20057;-77
2023/05/01 07:25:28;;;;;;;11.60;6.32;;;;;;;12.71;100.00;101598.00;5004217;28;20410;-77
2023/05/01 07:27:56;;;;;;;12.23;5.43;;;;;;;12.75;100.00;101597.16;4974498;28;20513;-77
2023/05/01 07:30:23;;;;;;;9.43;5.80;;;;;;;12.81;100.00;101591.88;4978752;28;20061;-76
2023/05/01 07:32:51;;;;;;;9.10;5.05;;;;;;;12.90;100.00;101585.78;4959186;28;20045;-77
2023/05/01 07:35:19;;;;;;;9.10;5.13;;;;;;;12.99;100.00;101595.53;4993984;28;20060;-76
2023/05/01 07:37:49;;;;;;;11.77;4.95;;;;;;;13.09;100.00;101586.75;5006543;28;20057;-76
2023/05/01 07:40:17;;;;;;;10.93;5.45;;;;;;;13.20;100.00;101579.75;5004897;28;20163;-78
2023/05/01 07:42:44;;;;;;;9.00;4.80;;;;;;;13.33;100.00;101586.00;4990525;28;20133;-78
2023/05/01 07:45:12;;;;;;;8.38;4.90;;;;;;;13.42;100.00;101580.75;4987036;28;20057;-78
2023/05/01 07:47:40;;;;;;;6.15;4.35;;;;;;;13.52;100.00;101586.94;5001591;28;20057;-77
2023/05/01 07:50:11;;;;;;;6.40;3.67;;;;;;;13.60;100.00;101579.03;4982664;28;20048;-78
2023/05/01 07:52:38;;;;;;;7.25;4.18;;;;;;;13.71;100.00;101571.97;4991317;28;20037;-76
2023/05/01 07:55:07;;;;;;;11.13;5.22;;;;;;;13.81;100.00;101575.53;4989701;28;20050;-76
2023/05/01 07:57:35;;;;;;;8.00;4.63;;;;;;;13.91;100.00;101579.94;5021522;28;20041;-77
2023/05/01 08:00:02;;;;;;;7.72;4.68;;;;;;;13.99;100.00;101579.97;4989643;28;20042;-76
2023/05/01 08:02:42;;;;;;;8.38;4.38;;;;;;;14.04;100.00;101578.19;4998188;28;20042;-76
2023/05/01 08:05:09;;;;;;;;;;;;;;;14.02;100.00;101586.13;4959289;28;20072;-76
2023/05/01 08:07:36;;;;;;;10.80;4.50;;;;;;;14.08;100.00;101584.38;5025755;28;19959;-76
2023/05/01 08:10:04;;;;;;;8.55;4.25;;;;;;;14.17;100.00;101576.44;5005461;28;20463;-76
2023/05/01 08:12:32;;;;;;;8.73;5.00;;;;;;;14.27;100.00;101570.22;5004100;28;20060;-76
2023/05/01 08:14:59;;;;;;;8.48;4.70;;;;;;;14.32;100.00;101570.25;4969342;28;20057;-76
2023/05/01 08:17:27;;;;;;;10.27;4.22;;;;;;;14.38;100.00;101571.09;5020189;28;20494;-78
2023/05/01 08:19:55;;;;;;;8.32;3.65;;;;;;;14.51;100.00;101573.75;4951348;28;20098;-76
2023/05/01 08:22:23;;;;;;;8.05;4.10;;;;;;;14.59;99.77;101566.69;5010935;28;20052;-76
2023/05/01 08:24:50;;;;;;;9.90;4.55;;;;;;;14.67;100.00;101566.69;5005393;28;20049;-77
2023/05/01 08:27:18;;;;;;;8.27;4.20;;;;;;;14.72;100.00;101560.47;5002451;28;20568;-76
2023/05/01 08:29:45;;;;;;;6.15;3.95;;;;;;;14.75;99.56;101565.78;4990039;28;20052;-76
2023/05/01 08:32:14;;;;;;;7.45;4.28;;;;;;;14.77;98.60;101569.31;4991725;28;20044;-76
2023/05/01 08:34:41;;;;;;;6.63;4.10;;;;;;;14.83;98.58;101563.09;4944905;28;20521;-76
2023/05/01 08:37:08;;;;;;;8.65;4.13;;;;;;;14.89;97.83;101557.78;5004088;28;20391;-76
2023/05/01 08:39:36;;;;;;;6.03;4.47;;;;;;;14.98;98.03;101557.75;4992822;28;20057;-76
2023/05/01 08:42:04;;;;;;;6.75;3.78;;;;;;;15.05;94.09;101553.31;4959165;28;20415;-76
2023/05/01 08:44:31;;;;;;;9.38;5.22;;;;;;;15.04;93.42;101556.84;4987538;28;20054;-77
2023/05/01 08:47:13;;;;;;;7.50;4.50;;;;;;;15.05;92.04;101558.63;4988577;28;20045;-76
2023/05/01 08:49:41;;;;;;;7.53;4.38;;;;;;;15.07;94.66;101561.28;5000077;28;20487;-76
2023/05/01 08:52:13;;;;;;;10.95;5.18;;;;;;;15.15;96.87;101559.47;4957807;28;20056;-76
2023/05/01 08:54:46;;;;;;;8.02;4.10;;;;;;;15.21;94.74;101554.97;4982666;28;20049;-76
2023/05/01 08:57:14;;;;;;;5.88;3.95;;;;;;;15.26;94.60;101556.75;4996426;28;20061;-76
2023/05/01 08:59:43;;;;;;;10.05;4.22;;;;;;;15.33;92.70;101555.81;4994363;28;20509;-77
2023/05/01 09:02:10;;;;;;;8.85;3.72;;;;;;;15.39;89.40;101556.69;4997211;28;20049;-76
2023/05/01 09:04:40;;;;;;;13.60;4.43;;;;;;;15.48;90.02;101558.41;4985324;28;20396;-76
2023/05/01 09:07:08;;;;;;;4.50;3.60;;;;;;;15.56;87.57;101555.72;4956418;28;20056;-76
2023/05/01 09:09:36;;;;;;;6.10;3.60;;;;;;;15.64;89.40;101553.88;4985676;28;20411;-76
2023/05/01 09:12:25;;;;;;;6.85;4.20;;;;;;;15.65;85.04;101550.34;4990689;28;20044;-76
2023/05/01 09:14:54;;;;;;;7.03;3.95;;;;;;;15.71;85.09;101546.75;4999729;28;20045;-77
2023/05/01 09:17:22;;;;;;;6.68;3.45;;;;;;;15.75;82.38;101543.22;4970639;28;20053;-76
2023/05/01 09:19:50;;;;;;;4.63;3.10;;;;;;;15.78;82.55;101551.16;4997335;28;20509;-76
2023/05/01 09:22:19;;;;;;;6.15;3.40;;;;;;;15.86;83.59;101548.44;4959268;28;20068;-78
2023/05/01 09:24:46;;;;;;;9.15;4.78;;;;;;;15.90;82.18;101537.78;4990659;28;20068;-77
2023/05/01 09:27:14;;;;;;;6.35;3.97;;;;;;;15.90;79.41;101537.78;4973820;28;20057;-76
2023/05/01 09:29:46;;;;;;;6.65;3.20;;;;;;;16.01;80.16;101542.13;5006452;28;20510;-77
2023/05/01 09:32:20;;;;;;;7.88;3.75;;;;;;;16.13;78.62;101537.59;4995014;28;20049;-77
2023/05/01 09:34:49;;;;;;;6.53;4.00;;;;;;;16.20;79.97;101535.75;5010282;28;20064;-77
2023/05/01 09:37:33;;;;;;;9.45;4.18;;;;;;;16.26;74.97;101530.38;4974856;28;20708;-77
2023/05/01 09:40:18;;;;;;;7.07;3.97;;;;;;;16.28;76.02;101533.03;5009451;28;20049;-77
2023/05/01 09:42:50;;;;;;;11.65;3.80;;;;;;;16.38;79.25;101532.91;5010976;28;20515;-77
2023/05/01 09:45:19;;;;;;;5.57;3.30;;;;;;;16.41;76.19;101525.78;5015535;28;20045;-77
2023/05/01 09:47:46;;;;;;;7.72;4.32;;;;;;;16.48;79.14;101523.06;5021485;28;21756;-76
2023/05/01 09:50:34;;;;;;;6.82;3.70;;;;;;;16.62;77.60;101536.22;4995901;28;20553;-76
2023/05/01 09:53:03;;;;;;;8.27;4.10;;;;;;;16.76;76.52;101534.28;4955282;28;20128;-76
2023/05/01 09:55:32;;;;;;;6.07;3.17;;;;;;;16.79;75.38;101522.72;5021996;28;20053;-78
2023/05/01 09:57:59;;;;;;;7.20;3.80;;;;;;;16.79;74.36;101524.53;4995965;28;20034;-78
2023/05/01 10:00:27;;;;;;;5.47;3.05;;;;;;;16.81;73.61;101523.59;5009795;28;20058;-78
2023/05/01 10:02:54;;;;;;;7.93;3.80;;;;;;;16.87;74.69;101528.00;4991280;28;20050;-78
2023/05/01 10:05:23;;;;;;;5.07;3.47;;;;;;;16.85;73.88;101528.00;5007632;28;20386;-78
2023/05/01 10:07:59;;;;;;;6.47;4.28;;;;;;;16.88;74.50;101527.06;4942020;28;20041;-77
2023/05/01 10:10:27;;;;;;;4.88;4.38;;;;;;;16.91;76.22;101527.03;5013895;28;20045;-77
2023/05/01 10:12:54;;;;;;;9.98;4.38;;;;;;;16.94;75.21;101527.91;5025431;28;20056;-78
2023/05/01 10:15:22;;;;;;;6.45;4.20;;;;;;;16.96;73.99;101522.56;5018472;28;20045;-79
2023/05/01 10:17:53;;;;;;;8.38;4.78;;;;;;;16.88;73.38;101524.41;4994807;28;20045;-78
2023/05/01 10:20:21;;;;;;;8.93;4.28;;;;;;;16.75;74.43;101516.56;5007438;28;20052;-78
2023/05/01 10:22:48;;;;;;;11.23;4.63;;;;;;;16.74;75.42;101519.22;4998599;28;20057;-77
2023/05/01 10:25:16;;;;;;;7.00;4.18;;;;;;;16.75;73.62;101511.22;4959697;28;20057;-78
2023/05/01 10:27:44;;;;;;;5.55;3.67;;;;;;;16.69;71.95;101513.97;5011302;28;20386;-78
2023/05/01 10:30:11;;;;;;;7.18;4.00;;;;;;;16.66;71.49;101518.44;5011809;28;20406;-78
2023/05/01 10:32:41;;;;;;;5.43;3.00;;;;;;;16.69;71.96;101521.97;4988286;28;20054;-79
2023/05/01 10:35:18;;;;;;;6.68;2.60;;;;;;;16.75;68.10;101521.88;5002440;28;20430;-78
2023/05/01 10:38:05;;;;;;;6.10;3.40;;;;;;;16.70;62.80;101518.38;5008717;28;20058;-78
2023/05/01 10:40:38;;;;;;;5.43;3.47;;;;;;;16.70;66.41;101513.06;5007026;28;20053;-78
2023/05/01 10:43:19;;;;;;;5.38;3.60;;;;;;;16.71;68.71;101511.28;5013993;28;20042;-77
2023/05/01 10:45:47;;;;;;;8.50;3.60;;;;;;;16.77;67.64;101514.75;5039705;28;20049;-79
2023/05/01 10:48:37;;;;;;;6.38;4.00;;;;;;;16.75;65.19;101519.22;5038095;28;20065;-78
2023/05/01 10:51:21;;;;;;;9.32;4.10;;;;;;;16.76;67.08;101517.44;4995252;28;20041;-78
2023/05/01 10:54:12;;;;;;;6.68;3.72;;;;;;;16.87;65.42;101515.56;5007882;28;20045;-78
2023/05/01 10:56:41;;;;;;;6.38;3.58;;;;;;;16.98;67.21;101518.09;5022792;28;20612;-77
2023/05/01 10:59:10;;;;;;;7.38;3.47;;;;;;;17.07;67.80;101512.66;4996307;28;20041;-78
2023/05/01 11:01:38;;;;;;;7.57;3.50;;;;;;;17.18;69.12;101514.28;5020591;28;20523;-78
2023/05/01 11:04:28;;;;;;;9.32;3.72;;;;;;;17.27;68.27;101504.38;5006082;28;20056;-76
2023/05/01 11:07:06;;;;;;;6.50;3.35;;;;;;;17.38;67.03;101516.66;5020313;28;20057;-78
2023/05/01 11:09:38;;;;;;;3.28;2.35;;;;;;;17.40;65.11;101515.75;4991270;28;20060;-78
2023/05/01 11:12:06;;;;;;;4.38;2.00;;;;;;;17.42;63.37;101511.25;4955229;28;20068;-78
2023/05/01 11:15:10;;;;;;;6.53;2.60;;;;;;;17.50;62.13;101509.38;4979035;28;20419;-78
2023/05/01 11:17:42;;;;;;;5.53;2.53;;;;;;;17.56;64.32;101512.84;4982608;28;20073;-78
2023/05/01 11:20:23;;;;;;;4.93;2.63;;;;;;;17.60;64.75;101507.47;4997511;28;20041;-79
2023/05/01 11:22:52;;;;;;;8.07;3.40;;;;;;;17.62;64.55;101504.78;5045247;28;20053;-87
2023/05/01 11:25:21;;;;;;;8.80;3.55;;;;;;;17.65;65.60;101510.91;4968286;28;20048;-83
2023/05/01 11:28:08;;;;;;;7.88;2.55;;;;;;;17.65;63.05;101510.91;5024974;28;20394;-76
2023/05/01 11:30:39;;;;;;;6.43;2.55;;;;;;;17.64;64.92;101509.16;4997443;28;20509;-77
2023/05/01 11:33:07;;;;;;;5.55;3.20;;;;;;;17.67;64.62;101511.75;5026937;28;20049;-77
2023/05/01 11:35:37;;;;;;;;;;;;;;;17.71;62.13;101509.94;5007925;28;20046;-77
2023/05/01 11:38:17;;;;;;;8.15;4.20;;;;;;;17.73;65.41;101505.44;5017317;28;19948;-77